createdAt,value
2019-01-08T00:00:48.306Z,160.40
2019-01-08T00:03:15.707Z,157.43
2019-01-08T00:05:43.185Z,163.60
2019-01-08T00:08:10.542Z,166.57
2019-01-08T00:10:38.035Z,163.77
2019-01-08T00:13:05.405Z,168.13
2019-01-08T00:15:32.847Z,171.33
2019-01-08T00:18:00.279Z,178.50
2019-01-08T00:20:27.735Z,167.13
2019-01-08T00:22:55.107Z,180.47
2019-01-08T00:25:22.540Z,156.97
2019-01-08T00:27:50.007Z,172.77
2019-01-08T00:30:17.396Z,169.13
2019-01-08T00:32:44.855Z,171.07
2019-01-08T00:35:12.343Z,163.77
2019-01-08T00:37:40.012Z,173.43
2019-01-08T00:40:07.461Z,162.73
2019-01-08T00:42:34.923Z,179.43
2019-01-08T00:45:02.619Z,155.30
2019-01-08T00:47:30.267Z,170.47
2019-01-08T00:49:57.631Z,156.17
2019-01-08T00:52:25.018Z,168.33
2019-01-08T00:54:52.966Z,151.10
2019-01-08T00:57:20.351Z,171.70
2019-01-08T00:59:47.742Z,155.90
2019-01-08T01:02:15.135Z,162.63
2019-01-08T01:04:42.592Z,159.10
2019-01-08T01:07:09.963Z,164.07
2019-01-08T01:09:37.335Z,154.77
2019-01-08T01:12:04.846Z,163.67
2019-01-08T01:14:32.230Z,149.37
2019-01-08T01:16:59.683Z,156.00
2019-01-08T01:19:27.135Z,151.70
2019-01-08T01:22:14.578Z,123.70
2019-01-08T01:24:42.015Z,153.63
2019-01-08T01:27:09.489Z,163.87
2019-01-08T01:29:37.393Z,151.63
2019-01-08T01:32:05.050Z,157.37
2019-01-08T01:34:32.643Z,147.80
2019-01-08T01:37:00.189Z,153.43
2019-01-08T01:39:27.898Z,141.07
2019-01-08T01:41:56.187Z,151.70
2019-01-08T01:44:24.103Z,161.03
2019-01-08T01:46:51.829Z,146.30
2019-01-08T01:49:19.559Z,150.63
2019-01-08T01:51:49.234Z,147.17
2019-01-08T01:54:16.867Z,149.73
2019-01-08T01:56:44.797Z,146.40
2019-01-08T01:59:12.353Z,157.37
2019-01-08T02:01:39.958Z,143.43
2019-01-08T02:04:07.383Z,144.10
2019-01-08T02:06:34.998Z,152.53
2019-01-08T02:09:04.394Z,151.97
2019-01-08T02:11:32.511Z,141.80
2019-01-08T02:13:59.968Z,149.47
2019-01-08T02:16:27.771Z,149.37
2019-01-08T02:18:55.372Z,147.13
2019-01-08T02:21:22.870Z,149.70
2019-01-08T02:23:51.269Z,143.00
2019-01-08T02:26:18.858Z,143.90
2019-01-08T02:28:46.557Z,142.33
2019-01-08T02:31:14.022Z,150.20
2019-01-08T02:33:41.546Z,155.17
2019-01-08T02:36:09.185Z,142.80
2019-01-08T02:38:36.605Z,145.30
2019-01-08T02:41:04.295Z,148.60
2019-01-08T02:43:31.868Z,147.90
2019-01-08T02:45:59.542Z,156.10
2019-01-08T02:48:27.403Z,153.87
2019-01-08T02:50:54.989Z,148.03
2019-01-08T02:53:22.625Z,146.57
2019-01-08T02:55:50.240Z,150.50
2019-01-08T02:58:17.810Z,148.13
2019-01-08T03:00:45.400Z,143.60
2019-01-08T03:03:13.079Z,146.27
2019-01-08T03:05:40.630Z,144.23
2019-01-08T03:08:08.523Z,158.27
2019-01-08T03:10:36.060Z,149.57
2019-01-08T03:13:03.833Z,157.57
2019-01-08T03:15:31.434Z,139.93
2019-01-08T03:17:58.915Z,162.47
2019-01-08T03:20:26.310Z,150.33
2019-01-08T03:22:53.768Z,154.57
2019-01-08T03:25:21.528Z,150.20
2019-01-08T03:27:49.391Z,151.43
2019-01-08T03:30:16.942Z,142.73
2019-01-08T03:32:44.311Z,146.60
2019-01-08T03:35:11.842Z,142.43
2019-01-08T03:37:40.938Z,158.63
2019-01-08T03:40:08.544Z,138.33
2019-01-08T03:42:36.204Z,154.13
2019-01-08T03:45:04.014Z,167.13
2019-01-08T03:47:31.536Z,151.17
2019-01-08T03:49:59.065Z,148.80
2019-01-08T03:52:27.035Z,159.97
2019-01-08T03:54:54.428Z,148.43
2019-01-08T03:57:21.808Z,160.60
2019-01-08T03:59:49.615Z,149.57
2019-01-08T04:02:16.994Z,156.97
2019-01-08T04:04:44.391Z,145.23
2019-01-08T04:07:11.888Z,149.00
2019-01-08T04:09:39.295Z,147.20
2019-01-08T04:12:06.799Z,149.57
2019-01-08T04:14:34.232Z,149.60
2019-01-08T04:17:01.980Z,149.40
2019-01-08T04:19:29.494Z,149.30
2019-01-08T04:21:57.018Z,141.03
2019-01-08T04:24:24.488Z,146.87
2019-01-08T04:26:52.900Z,157.07
2019-01-08T04:29:20.420Z,146.07
2019-01-08T04:31:48.082Z,159.77
2019-01-08T04:34:16.116Z,152.50
2019-01-08T04:36:43.754Z,143.77
2019-01-08T04:39:11.370Z,148.63
2019-01-08T04:41:39.109Z,154.73
2019-01-08T04:44:06.503Z,149.73
2019-01-08T04:46:34.109Z,164.73
2019-01-08T04:49:01.653Z,153.13
2019-01-08T04:51:29.131Z,160.70
2019-01-08T04:53:56.527Z,155.03
2019-01-08T04:56:24.218Z,155.60
2019-01-08T04:58:51.598Z,156.00
2019-01-08T05:01:19.409Z,159.17
2019-01-08T05:03:47.022Z,146.13
2019-01-08T05:06:14.589Z,158.13
2019-01-08T05:08:41.989Z,154.13
2019-01-08T05:11:09.485Z,157.27
2019-01-08T05:13:36.899Z,152.57
2019-01-08T05:16:04.558Z,161.50
2019-01-08T05:18:32.174Z,151.67
2019-01-08T05:20:59.681Z,144.67
2019-01-08T05:23:27.580Z,158.10
2019-01-08T05:25:55.027Z,149.57
2019-01-08T05:28:22.446Z,155.27
2019-01-08T05:30:50.362Z,157.27
2019-01-08T05:33:17.774Z,145.60
2019-01-08T05:35:45.431Z,145.43
2019-01-08T05:38:12.991Z,150.87
2019-01-08T05:40:40.453Z,146.57
2019-01-08T05:43:07.812Z,149.67
2019-01-08T05:45:35.246Z,148.27
2019-01-08T05:48:02.624Z,158.53
2019-01-08T05:50:31.062Z,164.40
2019-01-08T05:52:58.407Z,163.73
2019-01-08T05:55:25.815Z,151.27
2019-01-08T05:57:53.242Z,161.00
2019-01-08T06:00:20.772Z,147.70
2019-01-08T06:02:48.214Z,158.07
2019-01-08T06:05:15.641Z,160.27
2019-01-08T06:07:43.011Z,158.47
2019-01-08T06:10:10.540Z,150.63
2019-01-08T06:12:38.067Z,158.43
2019-01-08T06:15:05.657Z,142.43
2019-01-08T06:17:33.044Z,152.93
2019-01-08T06:20:00.574Z,143.77
2019-01-08T06:22:27.913Z,155.07
2019-01-08T06:24:55.266Z,146.10
2019-01-08T06:27:22.618Z,159.33
2019-01-08T06:29:50.049Z,144.87
2019-01-08T06:32:17.527Z,153.27
2019-01-08T06:34:44.915Z,149.03
2019-01-08T06:37:13.100Z,148.83
2019-01-08T06:39:40.559Z,142.87
2019-01-08T06:42:08.424Z,137.47
2019-01-08T06:44:35.792Z,134.70
2019-01-08T06:47:03.314Z,134.83
2019-01-08T06:49:30.994Z,137.33
2019-01-08T06:51:58.213Z,135.03
2019-01-08T06:54:25.562Z,134.83
2019-01-08T06:56:54.238Z,134.27
2019-01-08T06:59:21.649Z,136.87
2019-01-08T07:01:49.092Z,128.67
2019-01-08T07:04:17.796Z,128.50
2019-01-08T07:06:45.159Z,128.93
2019-01-08T07:09:12.627Z,139.43
2019-01-08T07:11:40.180Z,131.63
2019-01-08T07:14:07.579Z,133.50
2019-01-08T07:16:35.235Z,133.17
2019-01-08T07:19:02.710Z,135.60
2019-01-08T07:21:30.061Z,133.87
2019-01-08T07:23:57.460Z,144.40
2019-01-08T07:26:26.231Z,132.77
2019-01-08T07:28:53.733Z,133.63
2019-01-08T07:31:21.225Z,134.57
2019-01-08T07:33:48.600Z,131.30
2019-01-08T07:36:16.061Z,132.97
2019-01-08T07:38:43.938Z,132.43
2019-01-08T07:41:11.246Z,136.60
2019-01-08T07:43:38.768Z,148.27
2019-01-08T07:46:06.382Z,130.47
2019-01-08T07:48:33.748Z,140.07
2019-01-08T07:51:01.120Z,133.13
2019-01-08T07:53:28.465Z,135.70
2019-01-08T07:55:55.941Z,150.40
2019-01-08T07:58:23.420Z,152.00
2019-01-08T08:00:50.908Z,141.63
2019-01-08T08:03:18.512Z,138.43
2019-01-08T08:05:45.844Z,145.77
2019-01-08T08:08:13.915Z,143.03
2019-01-08T08:10:41.574Z,144.67
2019-01-08T08:13:08.947Z,147.10
2019-01-08T08:15:36.347Z,145.97
2019-01-08T08:18:04.666Z,153.63
2019-01-08T08:20:32.016Z,154.97
2019-01-08T08:22:59.566Z,170.87
2019-01-08T08:25:26.999Z,146.67
2019-01-08T08:27:54.597Z,155.00
2019-01-08T08:30:22.335Z,143.40
2019-01-08T08:32:49.931Z,165.50
2019-01-08T08:35:17.304Z,150.43
2019-01-08T08:37:45.129Z,150.30
2019-01-08T08:40:12.476Z,135.60
2019-01-08T08:42:39.853Z,136.53
2019-01-08T08:45:08.613Z,129.40
2019-01-08T08:47:37.722Z,139.63
2019-01-08T08:50:05.449Z,132.97
2019-01-08T08:52:32.859Z,133.93
2019-01-08T08:55:00.315Z,124.00
2019-01-08T08:57:28.476Z,145.93
2019-01-08T08:59:55.818Z,130.93
2019-01-08T09:02:23.215Z,137.90
2019-01-08T09:04:50.573Z,125.83
2019-01-08T09:07:18.017Z,142.30
2019-01-08T09:09:45.380Z,135.03
2019-01-08T09:12:12.750Z,138.20
2019-01-08T09:14:40.136Z,128.93
2019-01-08T09:17:07.513Z,134.07
2019-01-08T09:19:35.078Z,129.63
2019-01-08T09:22:02.672Z,126.97
2019-01-08T09:24:30.120Z,128.03
2019-01-08T09:26:57.632Z,122.00
2019-01-08T09:29:25.649Z,142.80
2019-01-08T09:31:53.021Z,123.57
2019-01-08T09:34:20.464Z,137.50
2019-01-08T09:36:47.868Z,132.57
2019-01-08T09:39:15.239Z,127.73
2019-01-08T09:41:42.598Z,130.30
2019-01-08T09:44:09.950Z,128.77
2019-01-08T09:46:37.465Z,132.40
2019-01-08T09:49:04.998Z,130.03
2019-01-08T09:51:32.971Z,141.00
2019-01-08T09:54:00.285Z,125.67
2019-01-08T09:56:27.660Z,140.40
2019-01-08T09:58:55.010Z,123.60
2019-01-08T10:01:24.091Z,127.53
2019-01-08T10:03:51.712Z,123.50
2019-01-08T10:06:19.063Z,118.00
2019-01-08T10:08:46.640Z,128.33
2019-01-08T10:11:14.016Z,119.00
2019-01-08T10:13:41.354Z,120.60
2019-01-08T10:16:08.712Z,126.77
2019-01-08T10:18:36.097Z,121.80
2019-01-08T10:21:03.439Z,126.17
2019-01-08T10:23:30.952Z,123.83
2019-01-08T10:25:58.362Z,125.13
2019-01-08T10:28:25.718Z,132.27
2019-01-08T10:30:53.065Z,121.57
2019-01-08T10:33:20.428Z,122.90
2019-01-08T10:35:47.822Z,124.33
2019-01-08T10:38:15.534Z,132.17
2019-01-08T10:40:42.882Z,126.90
2019-01-08T10:43:10.222Z,125.67
2019-01-08T10:45:37.731Z,123.43
2019-01-08T10:48:05.177Z,129.80
2019-01-08T10:50:32.713Z,123.67
2019-01-08T10:53:00.144Z,136.00
2019-01-08T10:55:27.606Z,129.27
2019-01-08T10:57:55.162Z,131.73
2019-01-08T11:00:22.724Z,125.47
2019-01-08T11:02:50.086Z,136.60
2019-01-08T11:05:17.554Z,122.37
2019-01-08T11:07:45.107Z,138.47
2019-01-08T11:10:12.451Z,131.07
2019-01-08T11:12:39.823Z,133.27
2019-01-08T11:15:07.556Z,124.67
2019-01-08T11:17:35.152Z,129.03
2019-01-08T11:20:02.779Z,123.57
2019-01-08T11:22:30.215Z,136.27
2019-01-08T11:24:57.572Z,125.20
2019-01-08T11:27:25.020Z,136.63
2019-01-08T11:29:52.460Z,122.70
2019-01-08T11:32:19.868Z,149.00
2019-01-08T11:34:47.334Z,124.33
2019-01-08T11:37:14.765Z,143.37
2019-01-08T11:39:42.171Z,135.73
2019-01-08T11:42:09.533Z,129.43
2019-01-08T11:44:37.010Z,126.07
2019-01-08T11:47:04.352Z,129.17
2019-01-08T11:49:31.787Z,134.37
2019-01-08T11:51:59.259Z,132.47
2019-01-08T11:54:26.583Z,119.93
2019-01-08T11:56:53.997Z,122.63
2019-01-08T11:59:21.368Z,128.83
2019-01-08T12:01:57.006Z,128.33
2019-01-08T12:04:19.139Z,127.90
2019-01-08T12:06:46.486Z,124.63
2019-01-08T12:09:14.450Z,133.20
2019-01-08T12:11:41.970Z,131.03
2019-01-08T12:14:09.347Z,130.20
2019-01-08T12:16:36.660Z,130.30
2019-01-08T12:19:04.263Z,124.70
2019-01-08T12:21:33.674Z,122.77
2019-01-08T12:24:01.186Z,128.50
2019-01-08T12:26:28.859Z,122.93
2019-01-08T12:28:58.909Z,122.47
2019-01-08T12:31:37.517Z,136.87
2019-01-08T12:34:05.934Z,125.23
2019-01-08T12:36:33.412Z,129.83
2019-01-08T12:39:00.804Z,130.10
2019-01-08T12:41:28.199Z,122.40
2019-01-08T12:43:55.780Z,129.77
2019-01-08T12:46:24.183Z,125.50
2019-01-08T12:48:51.539Z,125.17
2019-01-08T12:51:18.916Z,137.67
2019-01-08T12:53:46.263Z,133.70
2019-01-08T12:56:13.749Z,132.07
2019-01-08T12:58:41.290Z,137.07
2019-01-08T13:01:08.730Z,140.77
2019-01-08T13:03:36.174Z,126.63
2019-01-08T13:06:03.774Z,133.43
2019-01-08T13:08:31.205Z,126.10
2019-01-08T13:10:58.576Z,128.27
2019-01-08T13:13:26.144Z,132.10
2019-01-08T13:15:53.604Z,126.13
2019-01-08T13:18:20.998Z,126.10
2019-01-08T13:20:48.375Z,128.30
2019-01-08T13:23:15.907Z,136.27
2019-01-08T13:25:43.235Z,126.53
2019-01-08T13:28:10.595Z,132.40
2019-01-08T13:30:38.172Z,126.03
2019-01-08T13:33:05.527Z,127.77
2019-01-08T13:35:32.902Z,129.83
2019-01-08T13:38:01.338Z,139.90
2019-01-08T13:40:28.823Z,123.43
2019-01-08T13:42:57.233Z,133.13
2019-01-08T13:45:25.210Z,128.23
2019-01-08T13:47:52.544Z,137.57
2019-01-08T13:50:22.322Z,122.03
2019-01-08T13:52:50.810Z,131.37
2019-01-08T13:55:18.258Z,130.47
2019-01-08T13:57:45.738Z,142.47
2019-01-08T14:00:13.233Z,128.17
2019-01-08T14:02:40.910Z,131.00
2019-01-08T14:05:08.513Z,128.70
2019-01-08T14:07:36.239Z,134.97
2019-01-08T14:10:04.406Z,129.83
2019-01-08T14:12:31.778Z,142.10
2019-01-08T14:14:59.379Z,129.53
2019-01-08T14:17:26.808Z,137.30
2019-01-08T14:19:54.288Z,137.73
2019-01-08T14:22:21.636Z,143.27
2019-01-08T14:24:49.482Z,135.93
2019-01-08T14:27:16.964Z,132.00
2019-01-08T14:29:44.345Z,140.13
2019-01-08T14:32:12.470Z,137.40
2019-01-08T14:34:39.801Z,129.13
2019-01-08T14:37:07.257Z,137.53
2019-01-08T14:39:34.624Z,130.10
2019-01-08T14:42:02.460Z,128.50
2019-01-08T14:44:29.822Z,129.97
2019-01-08T14:46:59.319Z,127.10
2019-01-08T14:49:31.819Z,118.23
2019-01-08T14:52:02.201Z,123.93
2019-01-08T14:54:31.649Z,124.20
2019-01-08T14:57:01.024Z,125.97
2019-01-08T14:59:31.310Z,132.00
2019-01-08T15:01:59.081Z,139.07
2019-01-08T15:04:26.478Z,131.67
2019-01-08T15:06:53.853Z,128.70
2019-01-08T15:09:21.294Z,132.00
2019-01-08T15:11:48.665Z,130.00
2019-01-08T15:14:17.737Z,134.63
2019-01-08T15:16:45.185Z,132.23
2019-01-08T15:19:12.998Z,128.73
2019-01-08T15:21:41.713Z,138.57
2019-01-08T15:24:10.879Z,126.03
2019-01-08T15:26:38.984Z,125.77
2019-01-08T15:29:08.828Z,127.40
2019-01-08T15:31:39.453Z,127.37
2019-01-08T15:34:07.583Z,125.90
2019-01-08T15:36:46.249Z,137.73
2019-01-08T15:39:13.946Z,141.70
2019-01-08T15:41:41.477Z,136.43
2019-01-08T15:44:15.155Z,132.73
2019-01-08T15:46:38.486Z,134.60
2019-01-08T15:49:06.056Z,130.17
2019-01-08T15:51:33.725Z,124.50
2019-01-08T15:54:01.122Z,134.73
2019-01-08T15:56:28.501Z,138.53
2019-01-08T15:58:56.059Z,130.23
2019-01-08T16:01:23.519Z,149.73
2019-01-08T16:03:51.296Z,140.77
2019-01-08T16:06:18.809Z,154.13
2019-01-08T16:08:46.568Z,137.87
2019-01-08T16:11:14.207Z,132.97
2019-01-08T16:13:41.605Z,137.20
2019-01-08T16:16:09.195Z,130.97
2019-01-08T16:18:37.185Z,137.90
2019-01-08T16:21:04.717Z,139.03
2019-01-08T16:23:32.197Z,139.17
2019-01-08T16:25:59.632Z,140.27
2019-01-08T16:28:27.156Z,140.20
2019-01-08T16:30:55.547Z,139.50
2019-01-08T16:33:23.078Z,128.13
2019-01-08T16:35:50.978Z,137.77
2019-01-08T16:38:18.852Z,140.77
2019-01-08T16:40:46.490Z,138.10
2019-01-08T16:43:13.983Z,136.57
2019-01-08T16:45:41.619Z,131.63
2019-01-08T16:48:09.131Z,137.93
2019-01-08T16:50:36.637Z,139.00
2019-01-08T16:53:04.284Z,139.60
2019-01-08T16:55:31.691Z,142.73
2019-01-08T16:57:59.809Z,154.37
2019-01-08T17:00:27.676Z,139.67
2019-01-08T17:02:56.773Z,151.70
2019-01-08T17:05:24.655Z,142.93
2019-01-08T17:07:52.220Z,146.73
2019-01-08T17:10:19.849Z,131.73
2019-01-08T17:12:47.295Z,158.23
2019-01-08T17:15:14.924Z,146.50
2019-01-08T17:17:42.418Z,147.77
2019-01-08T17:20:10.015Z,145.90
2019-01-08T17:22:37.687Z,149.20
2019-01-08T17:25:05.748Z,138.97
2019-01-08T17:27:33.413Z,140.30
2019-01-08T17:30:01.074Z,147.20
2019-01-08T17:32:28.593Z,164.70
2019-01-08T17:34:56.787Z,133.17
2019-01-08T17:37:24.246Z,141.70
2019-01-08T17:39:51.919Z,136.63
2019-01-08T17:42:19.925Z,149.20
2019-01-08T17:44:47.420Z,146.27
2019-01-08T17:47:14.986Z,147.97
2019-01-08T17:49:42.581Z,136.27
2019-01-08T17:52:10.139Z,154.73
2019-01-08T17:54:37.757Z,139.77
2019-01-08T17:57:05.391Z,156.30
2019-01-08T17:59:32.945Z,139.63
2019-01-08T18:02:07.676Z,147.20
2019-01-08T18:04:35.195Z,137.30
2019-01-08T18:07:02.629Z,143.03
2019-01-08T18:09:30.009Z,141.40
2019-01-08T18:11:59.360Z,139.60
2019-01-08T18:14:26.777Z,139.47
2019-01-08T18:16:54.173Z,132.90
2019-01-08T18:19:21.695Z,137.40
2019-01-08T18:21:49.438Z,137.93
2019-01-08T18:24:17.123Z,141.83
2019-01-08T18:26:44.629Z,143.20
2019-01-08T18:29:13.525Z,129.27
2019-01-08T18:31:41.116Z,141.47
2019-01-08T18:34:08.626Z,134.53
2019-01-08T18:36:36.361Z,145.83
2019-01-08T18:39:06.420Z,133.00
2019-01-08T18:41:34.653Z,139.80
2019-01-08T18:44:02.224Z,147.33
2019-01-08T18:46:29.773Z,140.07
2019-01-08T18:48:57.459Z,136.23
2019-01-08T18:51:26.190Z,139.60
2019-01-08T18:53:54.647Z,141.43
2019-01-08T18:56:22.090Z,133.33
2019-01-08T18:58:49.716Z,140.87
2019-01-08T19:01:17.141Z,137.30
2019-01-08T19:03:44.693Z,137.53
2019-01-08T19:06:12.018Z,140.77
2019-01-08T19:09:23.132Z,142.03
2019-01-08T19:11:51.821Z,141.27
2019-01-08T19:14:20.931Z,136.60
2019-01-08T19:16:48.466Z,142.53
2019-01-08T19:19:16.026Z,140.57
2019-01-08T19:21:43.493Z,144.13
2019-01-08T19:24:11.129Z,138.97
2019-01-08T19:26:39.589Z,137.47
2019-01-08T19:29:06.934Z,132.70
2019-01-08T19:31:34.611Z,134.40
2019-01-08T19:34:08.933Z,139.93
2019-01-08T19:36:32.080Z,132.77
2019-01-08T19:38:59.571Z,135.60
2019-01-08T19:41:28.105Z,136.70
2019-01-08T19:43:55.645Z,134.80
2019-01-08T19:46:23.212Z,132.20
2019-01-08T19:48:50.965Z,134.73
2019-01-08T19:51:18.775Z,125.67
2019-01-08T19:53:49.196Z,130.87
2019-01-08T19:56:18.267Z,126.80
2019-01-08T19:58:45.658Z,127.73
2019-01-08T20:01:13.438Z,130.67
2019-01-08T20:03:40.803Z,129.97
2019-01-08T20:06:08.175Z,131.93
2019-01-08T20:08:36.139Z,140.23
2019-01-08T20:11:04.665Z,134.27
2019-01-08T20:13:33.813Z,138.20
2019-01-08T20:17:00.940Z,131.57
2019-01-08T20:19:28.293Z,131.70
2019-01-08T20:21:55.793Z,132.03
2019-01-08T20:24:23.174Z,146.33
2019-01-08T20:26:50.535Z,142.03
2019-01-08T20:29:17.948Z,140.33
2019-01-08T20:31:45.401Z,135.40
2019-01-08T20:34:12.802Z,143.53
2019-01-08T20:36:40.193Z,143.87
2019-01-08T20:39:12.221Z,129.30
2019-01-08T20:41:40.042Z,144.70
2019-01-08T20:44:07.481Z,155.13
2019-01-08T20:46:35.151Z,136.60
2019-01-08T20:49:02.633Z,135.87
2019-01-08T20:51:30.232Z,133.47
2019-01-08T20:53:57.603Z,146.43
2019-01-08T20:56:25.106Z,138.30
2019-01-08T20:58:52.474Z,138.83
2019-01-08T21:01:19.912Z,143.43
2019-01-08T21:03:47.372Z,138.27
2019-01-08T21:06:14.803Z,148.33
2019-01-08T21:08:42.158Z,140.27
2019-01-08T21:11:09.743Z,140.80
2019-01-08T21:13:37.206Z,144.73
2019-01-08T21:16:04.625Z,138.60
2019-01-08T21:18:32.318Z,137.73
2019-01-08T21:20:59.856Z,139.20
2019-01-08T21:23:27.405Z,142.80
2019-01-08T21:25:54.771Z,151.30
2019-01-08T21:28:22.467Z,146.77
2019-01-08T21:30:49.885Z,141.60
2019-01-08T21:33:17.408Z,149.20
2019-01-08T21:35:44.938Z,140.40
2019-01-08T21:38:13.616Z,146.00
2019-01-08T21:40:41.077Z,147.63
2019-01-08T21:43:09.685Z,145.90
2019-01-08T21:45:37.289Z,141.77
2019-01-08T21:48:05.658Z,154.77
2019-01-08T21:50:33.728Z,147.47
2019-01-08T21:53:01.184Z,149.80
2019-01-08T21:55:28.750Z,147.57
2019-01-08T21:57:56.671Z,151.50
2019-01-08T22:00:24.220Z,147.60
2019-01-08T22:02:53.294Z,150.73
2019-01-08T22:05:20.938Z,157.33
2019-01-08T22:07:48.661Z,153.37
2019-01-08T22:10:16.228Z,151.43
2019-01-08T22:12:43.750Z,154.83
2019-01-08T22:15:11.239Z,144.00
2019-01-08T22:17:38.625Z,161.40
2019-01-08T22:20:09.162Z,147.13
2019-01-08T22:22:36.948Z,154.23
2019-01-08T22:25:04.607Z,141.83
2019-01-08T22:27:32.001Z,153.80
2019-01-08T22:29:59.497Z,140.87
2019-01-08T22:32:27.124Z,161.97
2019-01-08T22:35:02.073Z,139.53
2019-01-08T22:37:24.010Z,157.73
2019-01-08T22:39:51.517Z,145.23
2019-01-08T22:42:19.391Z,152.93
2019-01-08T22:44:47.131Z,141.97
2019-01-08T22:47:14.609Z,152.83
2019-01-08T22:49:42.582Z,136.30
2019-01-08T22:52:10.367Z,149.23
2019-01-08T22:54:39.170Z,152.47
2019-01-08T22:57:06.892Z,150.20
2019-01-08T22:59:34.286Z,138.47
2019-01-08T23:02:02.188Z,149.27
2019-01-08T23:04:29.955Z,140.13
2019-01-08T23:06:57.452Z,147.07
2019-01-08T23:09:25.009Z,152.10
2019-01-08T23:11:52.546Z,140.93
2019-01-08T23:14:20.501Z,144.63
2019-01-08T23:16:48.032Z,145.07
2019-01-08T23:19:15.441Z,143.57
2019-01-08T23:21:43.206Z,154.03
2019-01-08T23:24:10.823Z,142.80
2019-01-08T23:26:38.496Z,139.83
2019-01-08T23:29:06.090Z,143.07
2019-01-08T23:31:33.665Z,143.43
2019-01-08T23:34:01.223Z,142.83
2019-01-08T23:36:28.862Z,147.20
2019-01-08T23:38:59.432Z,150.37
2019-01-08T23:41:26.999Z,140.43
2019-01-08T23:43:55.504Z,139.93
2019-01-08T23:46:22.967Z,140.43
2019-01-08T23:48:50.660Z,138.67
2019-01-08T23:51:18.253Z,137.50
2019-01-08T23:53:49.022Z,145.33
2019-01-08T23:56:16.734Z,144.83
2019-01-08T23:58:44.217Z,150.03
